Time;durP1;ratioP1;P1;durP2;ratioP2;P2;SDS_P1;SDS_P2;PMS_P1;PMS_P2;Temp;Humidity;BMP_temperature;BMP_pressure;BME280_temperature;BME280_humidity;BME280_pressure;Samples;Min_cycle;Max_cycle;Signal;HPM_P1;HPM_P2
2020/12/11 00:00:56;;;;;;;19.42;10.32;;;;;;;1.47;nan;95371.28;4980003;28;20194;-70
2020/12/11 00:03:23;;;;;;;13.45;8.68;;;;;;;1.44;nan;95366.31;4978733;28;20773;-69
2020/12/11 00:05:50;;;;;;;17.77;8.10;;;;;;;1.41;nan;95371.56;4980450;28;20285;-70
2020/12/11 00:08:17;;;;;;;11.15;6.88;;;;;;;1.33;nan;95371.09;4977844;28;20762;-69
2020/12/11 00:10:45;;;;;;;13.48;8.30;;;;;;;1.34;nan;95367.63;4979517;28;20224;-68
2020/12/11 00:13:13;;;;;;;11.52;7.10;;;;;;;1.22;nan;95360.50;4978506;28;20285;-68
2020/12/11 00:15:40;;;;;;;15.75;8.23;;;;;;;1.32;nan;95372.00;4979869;28;20590;-68
2020/12/11 00:18:07;;;;;;;14.18;8.70;;;;;;;1.26;nan;95374.81;4979046;28;20617;-68
2020/12/11 00:20:34;;;;;;;14.00;8.35;;;;;;;1.34;nan;95370.19;4981971;28;20237;-71
2020/12/11 00:23:04;;;;;;;11.40;7.97;;;;;;;1.36;nan;95373.53;4978803;28;20513;-70
2020/12/11 00:25:31;;;;;;;14.68;7.05;;;;;;;1.35;nan;95378.72;4979503;28;20252;-68
2020/12/11 00:27:58;;;;;;;11.18;7.53;;;;;;;1.21;nan;95358.00;4978943;28;20291;-70
2020/12/11 00:30:25;;;;;;;16.10;8.80;;;;;;;1.23;nan;95367.28;4978957;28;20204;-68
2020/12/11 00:32:52;;;;;;;11.57;7.05;;;;;;;1.20;nan;95361.47;4978739;28;20727;-69
2020/12/11 00:35:19;;;;;;;11.55;7.55;;;;;;;1.19;nan;95349.56;4979227;28;20272;-70
2020/12/11 00:37:46;;;;;;;15.13;7.85;;;;;;;1.11;nan;95337.09;4976029;28;20198;-70
2020/12/11 00:40:13;;;;;;;21.10;8.20;;;;;;;1.12;nan;95325.94;4979130;28;20567;-69
2020/12/11 00:42:39;;;;;;;14.57;8.38;;;;;;;1.12;nan;95315.72;4979150;28;20724;-70
2020/12/11 00:45:07;;;;;;;15.80;9.40;;;;;;;1.12;nan;95304.66;4978916;28;20248;-68
2020/12/11 00:47:36;;;;;;;15.55;9.00;;;;;;;1.19;nan;95309.41;4979128;28;20694;-68
2020/12/11 00:50:04;;;;;;;12.05;8.27;;;;;;;1.13;nan;95294.34;4978795;28;20225;-69
2020/12/11 00:52:30;;;;;;;14.23;8.32;;;;;;;1.08;nan;95293.72;4978941;28;20224;-69
2020/12/11 00:54:57;;;;;;;14.00;9.20;;;;;;;1.06;nan;95303.22;4978050;28;20764;-69
2020/12/11 00:57:24;;;;;;;13.02;8.18;;;;;;;0.99;nan;95317.19;4979844;28;20189;-68
2020/12/11 00:59:51;;;;;;;16.73;9.50;;;;;;;1.08;nan;95324.44;4978497;28;20573;-70
2020/12/11 01:02:17;;;;;;;16.10;8.85;;;;;;;1.07;nan;95314.25;4977382;28;20869;-67
2020/12/11 01:04:45;;;;;;;14.23;8.23;;;;;;;1.05;nan;95301.53;4978361;28;20622;-70
2020/12/11 01:07:12;;;;;;;16.70;9.75;;;;;;;0.97;nan;95283.13;4978716;28;20625;-69
2020/12/11 01:09:39;;;;;;;15.75;10.27;;;;;;;1.00;nan;95283.00;4977424;28;20418;-72
2020/12/11 01:12:06;;;;;;;14.40;8.48;;;;;;;0.91;nan;95286.00;4978420;28;20568;-70
2020/12/11 01:14:33;;;;;;;15.23;8.65;;;;;;;0.89;nan;95274.16;4977436;28;20260;-68
2020/12/11 01:16:59;;;;;;;17.15;10.55;;;;;;;0.76;nan;95266.19;4978683;28;20290;-69
2020/12/11 01:19:26;;;;;;;23.65;12.15;;;;;;;0.78;nan;95246.47;4977741;28;20226;-69
2020/12/11 01:21:54;;;;;;;17.25;9.85;;;;;;;0.82;nan;95247.97;4979772;28;20580;-68
2020/12/11 01:24:22;;;;;;;18.88;11.30;;;;;;;0.75;nan;95243.22;4977539;28;20591;-68
2020/12/11 01:26:49;;;;;;;19.70;10.35;;;;;;;0.73;nan;95253.53;4978269;28;20656;-69
2020/12/11 01:29:16;;;;;;;18.48;9.55;;;;;;;0.68;nan;95260.56;4978407;28;20221;-69
2020/12/11 01:31:42;;;;;;;16.85;10.85;;;;;;;0.63;nan;95277.91;4977940;28;20692;-68
2020/12/11 01:34:09;;;;;;;22.25;10.45;;;;;;;0.60;nan;95278.00;4977764;28;20253;-68
2020/12/11 01:36:36;;;;;;;21.98;11.55;;;;;;;0.70;nan;95268.19;4978036;28;20209;-68
2020/12/11 01:39:04;;;;;;;22.38;11.60;;;;;;;0.70;nan;95263.91;4978138;28;20727;-69
2020/12/11 01:41:31;;;;;;;20.45;11.10;;;;;;;0.66;nan;95264.94;4978516;28;20321;-68
2020/12/11 01:44:04;;;;;;;22.58;11.27;;;;;;;0.65;nan;95260.72;4977833;28;20580;-68
2020/12/11 01:46:37;;;;;;;18.42;10.68;;;;;;;0.62;nan;95260.88;4974590;28;20646;-68
2020/12/11 01:49:04;;;;;;;21.25;11.55;;;;;;;0.66;nan;95259.81;4978226;28;20553;-67
2020/12/11 01:51:32;;;;;;;24.42;12.85;;;;;;;0.64;nan;95258.22;4976657;28;20204;-68
2020/12/11 01:54:00;;;;;;;20.95;11.05;;;;;;;0.59;nan;95250.75;4977190;28;20244;-67
2020/12/11 01:56:32;;;;;;;24.20;13.63;;;;;;;0.65;nan;95240.25;4977672;28;20762;-67
2020/12/11 01:59:01;;;;;;;26.15;13.60;;;;;;;0.81;nan;95250.63;4977592;28;20224;-69
2020/12/11 02:01:29;;;;;;;20.33;11.40;;;;;;;0.72;nan;95241.63;4977456;28;20592;-68
2020/12/11 02:03:56;;;;;;;19.55;11.65;;;;;;;0.77;nan;95244.81;4977102;28;20687;-68
2020/12/11 02:06:24;;;;;;;23.75;12.27;;;;;;;0.68;nan;95234.97;4978031;28;20726;-68
2020/12/11 02:08:55;;;;;;;23.08;14.35;;;;;;;0.60;nan;95231.94;4976816;28;20308;-68
2020/12/11 02:11:23;;;;;;;20.42;12.10;;;;;;;0.59;nan;95219.25;4976658;28;20221;-69
2020/12/11 02:13:51;;;;;;;25.90;12.93;;;;;;;0.56;nan;95214.25;4977034;28;20601;-73
2020/12/11 02:16:21;;;;;;;23.80;13.75;;;;;;;0.55;nan;95212.59;4976111;28;20197;-69
2020/12/11 02:18:48;;;;;;;25.58;13.40;;;;;;;0.56;nan;95204.84;4977416;28;20246;-70
2020/12/11 02:21:15;;;;;;;25.00;13.00;;;;;;;0.48;nan;95191.56;4980058;28;20307;-69
2020/12/11 02:23:43;;;;;;;23.40;13.23;;;;;;;0.36;nan;95181.03;4976621;28;20361;-68
2020/12/11 02:26:11;;;;;;;26.38;13.27;;;;;;;0.41;nan;95174.84;4977690;28;20613;-68
2020/12/11 02:28:38;;;;;;;25.38;13.40;;;;;;;0.35;nan;95162.31;4977471;28;20744;-68
2020/12/11 02:31:05;;;;;;;27.65;13.55;;;;;;;0.26;nan;95162.75;4977674;28;20679;-68
2020/12/11 02:33:32;;;;;;;26.30;13.32;;;;;;;0.28;nan;95162.66;4975572;28;20226;-68
2020/12/11 02:35:58;;;;;;;26.15;13.15;;;;;;;0.25;nan;95153.41;4977786;28;20289;-68
2020/12/11 02:38:25;;;;;;;26.60;13.95;;;;;;;0.29;nan;95167.72;4977480;28;20618;-68
2020/12/11 02:40:56;;;;;;;28.85;14.60;;;;;;;0.26;nan;95161.91;4977081;28;20316;-68
2020/12/11 02:43:23;;;;;;;25.20;14.27;;;;;;;0.24;nan;95172.19;4975590;28;20772;-69
2020/12/11 02:45:52;;;;;;;32.42;16.48;;;;;;;0.23;nan;95173.09;4976943;28;20241;-68
2020/12/11 02:48:20;;;;;;;25.98;13.65;;;;;;;0.20;nan;95175.81;4975910;28;20222;-68
2020/12/11 02:50:47;;;;;;;30.35;15.57;;;;;;;0.14;nan;95159.91;4972811;28;20671;-68
2020/12/11 02:53:14;;;;;;;27.40;13.82;;;;;;;0.15;nan;95164.16;4975405;28;20283;-70
2020/12/11 02:55:40;;;;;;;26.10;12.15;;;;;;;0.13;nan;95153.97;4976804;28;20699;-68
2020/12/11 02:58:08;;;;;;;26.92;14.32;;;;;;;0.11;nan;95160.91;4975971;28;20609;-68
2020/12/11 03:00:35;;;;;;;28.88;15.40;;;;;;;0.16;nan;95155.56;4977119;28;20216;-68
2020/12/11 03:03:02;;;;;;;28.13;13.80;;;;;;;0.13;nan;95156.53;4976810;28;20201;-69
2020/12/11 03:05:28;;;;;;;26.60;13.77;;;;;;;0.10;nan;95154.09;4977237;28;20220;-71
2020/12/11 03:07:55;;;;;;;27.10;13.02;;;;;;;0.07;nan;95155.97;4975920;28;20745;-69
2020/12/11 03:10:22;;;;;;;24.20;13.13;;;;;;;0.07;nan;95150.84;4976839;28;20514;-69
2020/12/11 03:12:48;;;;;;;26.65;13.20;;;;;;;0.05;nan;95144.97;4975583;28;20225;-69
2020/12/11 03:15:17;;;;;;;23.48;13.25;;;;;;;0.03;nan;95137.38;4976613;28;20679;-70
2020/12/11 03:17:44;;;;;;;26.30;12.95;;;;;;;0.03;nan;95132.25;4976795;28;20186;-71
2020/12/11 03:20:11;;;;;;;27.65;14.88;;;;;;;0.01;nan;95134.06;4978341;28;20220;-70
2020/12/11 03:22:38;;;;;;;24.58;13.15;;;;;;;-0.02;nan;95123.97;4976426;28;20536;-70
2020/12/11 03:25:05;;;;;;;29.23;14.50;;;;;;;-0.03;nan;95118.13;4976061;28;20217;-69
2020/12/11 03:27:32;;;;;;;27.85;14.23;;;;;;;-0.03;nan;95104.44;4976530;28;20245;-69
2020/12/11 03:29:58;;;;;;;30.73;15.30;;;;;;;0.08;nan;95111.63;4976162;28;20355;-69
2020/12/11 03:32:26;;;;;;;31.20;16.35;;;;;;;0.01;nan;95105.94;4975809;28;20687;-70
2020/12/11 03:34:53;;;;;;;28.80;14.20;;;;;;;0.06;nan;95101.44;4979718;28;20871;-69
2020/12/11 03:37:19;;;;;;;26.60;13.45;;;;;;;0.01;nan;95098.25;4981119;28;20648;-69
2020/12/11 03:39:46;;;;;;;32.33;14.63;;;;;;;0.04;nan;95098.13;4975651;28;20245;-69
2020/12/11 03:42:13;;;;;;;29.05;13.93;;;;;;;0.02;nan;95084.56;4980397;28;20752;-70
2020/12/11 03:44:40;;;;;;;29.20;16.13;;;;;;;0.06;nan;95088.66;4979866;28;20765;-69
2020/12/11 03:47:07;;;;;;;25.45;13.73;;;;;;;0.15;nan;95078.00;4979769;28;20288;-70
2020/12/11 03:49:34;;;;;;;29.23;14.00;;;;;;;0.13;nan;95074.69;4979796;28;20222;-69
2020/12/11 03:52:01;;;;;;;28.27;15.57;;;;;;;0.00;nan;95071.03;4979740;28;20193;-69
2020/12/11 03:54:28;;;;;;;25.38;13.10;;;;;;;-0.06;nan;95071.31;4979550;28;20664;-70
2020/12/11 03:56:55;;;;;;;31.08;14.55;;;;;;;-0.03;nan;95060.97;4980117;28;20285;-69
2020/12/11 03:59:21;;;;;;;27.90;14.93;;;;;;;0.02;nan;95045.41;4979691;28;20708;-69
2020/12/11 04:01:48;;;;;;;28.27;14.70;;;;;;;-0.05;nan;95041.47;4979697;28;20205;-69
2020/12/11 04:04:15;;;;;;;26.35;12.95;;;;;;;-0.03;nan;95034.56;4979464;28;20222;-69
2020/12/11 04:06:43;;;;;;;28.55;13.57;;;;;;;-0.08;nan;95028.00;4981864;28;20793;-70
2020/12/11 04:09:10;;;;;;;27.30;15.02;;;;;;;-0.13;nan;95023.94;4978921;28;20532;-70
2020/12/11 04:11:38;;;;;;;29.02;14.02;;;;;;;-0.33;nan;95007.84;4979792;28;20281;-69
2020/12/11 04:14:05;;;;;;;30.35;15.43;;;;;;;-0.23;nan;95031.28;4978594;28;20917;-70
2020/12/11 04:16:33;;;;;;;28.38;12.55;;;;;;;-0.33;nan;95027.47;4978161;28;20615;-69
2020/12/11 04:19:00;;;;;;;37.17;14.70;;;;;;;-0.33;nan;95030.00;4979375;28;20244;-69
2020/12/11 04:21:27;;;;;;;27.88;13.20;;;;;;;-0.32;nan;95034.25;4981909;28;20281;-73
2020/12/11 04:23:55;;;;;;;33.20;13.70;;;;;;;-0.41;nan;95017.59;4979231;28;20631;-69
2020/12/11 04:26:22;;;;;;;30.38;15.10;;;;;;;-0.31;nan;95023.94;4980656;28;20277;-69
2020/12/11 04:28:49;;;;;;;32.35;15.55;;;;;;;-0.35;nan;95021.59;4979176;28;20294;-70
2020/12/11 04:31:18;;;;;;;34.60;16.42;;;;;;;-0.51;nan;95005.31;4979185;28;20193;-69
2020/12/11 04:33:45;;;;;;;28.73;14.60;;;;;;;-0.45;nan;95016.06;4978330;28;20500;-71
2020/12/11 04:36:16;;;;;;;36.85;13.90;;;;;;;-0.43;nan;95016.00;4979177;28;20239;-70
2020/12/11 04:38:44;;;;;;;29.48;15.07;;;;;;;-0.40;nan;95018.41;4978197;28;20939;-69
2020/12/11 04:41:14;;;;;;;27.10;12.80;;;;;;;-0.43;nan;95023.69;4979152;28;20659;-70
2020/12/11 04:43:41;;;;;;;36.15;16.58;;;;;;;-0.43;nan;95023.69;4978626;28;20229;-73
2020/12/11 04:46:08;;;;;;;31.98;16.10;;;;;;;-0.40;nan;95018.41;4976563;28;20201;-69
2020/12/11 04:48:35;;;;;;;32.33;14.45;;;;;;;-0.42;nan;95020.22;4978030;28;20252;-69
2020/12/11 04:51:08;;;;;;;31.30;14.82;;;;;;;-0.48;nan;95021.31;4978770;28;20240;-71
2020/12/11 04:53:36;;;;;;;27.17;13.55;;;;;;;-0.52;nan;95024.09;4978213;28;20301;-68
2020/12/11 04:56:05;;;;;;;32.80;15.50;;;;;;;-0.54;nan;95019.03;4978411;28;20635;-67
2020/12/11 04:58:34;;;;;;;29.92;13.82;;;;;;;-0.60;nan;95016.75;4976159;28;20304;-71
2020/12/11 05:01:03;;;;;;;30.42;13.43;;;;;;;-0.66;nan;95004.25;4977825;28;20303;-71
2020/12/11 05:03:32;;;;;;;30.70;14.48;;;;;;;-0.67;nan;94999.25;4978223;28;20226;-69
2020/12/11 05:05:59;;;;;;;32.65;14.60;;;;;;;-0.70;nan;94994.25;4978622;28;20282;-70
2020/12/11 05:08:25;;;;;;;29.52;14.55;;;;;;;-0.63;nan;94993.91;4978129;28;20222;-68
2020/12/11 05:10:52;;;;;;;31.95;15.40;;;;;;;-0.80;nan;94970.88;4978173;28;20616;-68
2020/12/11 05:13:20;;;;;;;34.30;14.52;;;;;;;-0.65;nan;94992.31;4976612;28;20527;-70
2020/12/11 05:16:08;;;;;;;32.97;14.50;;;;;;;-0.63;nan;94993.06;4974539;28;20205;-69
2020/12/11 05:18:36;;;;;;;24.45;11.85;;;;;;;-0.68;nan;94995.03;4977054;28;20641;-69
2020/12/11 05:21:14;;;;;;;31.52;13.27;;;;;;;-0.67;nan;94991.56;4980377;28;20297;-69
2020/12/11 05:23:58;;;;;;;28.90;14.55;;;;;;;-0.69;nan;94990.78;4980076;28;20320;-69
2020/12/11 05:26:25;;;;;;;37.20;14.35;;;;;;;-0.73;nan;94990.13;4977357;28;20308;-68
2020/12/11 05:28:52;;;;;;;29.48;14.63;;;;;;;-0.72;nan;94983.28;4977495;28;20771;-69
2020/12/11 05:31:20;;;;;;;29.42;13.63;;;;;;;-0.71;nan;94984.94;4976649;28;20647;-68
2020/12/11 05:34:08;;;;;;;32.97;15.23;;;;;;;-0.74;nan;94985.09;4973583;28;20755;-69
2020/12/11 05:36:48;;;;;;;32.67;15.07;;;;;;;-0.76;nan;94981.78;4976856;28;20608;-69
2020/12/11 05:39:33;;;;;;;26.48;12.55;;;;;;;-0.77;nan;94982.66;4977421;28;20418;-68
2020/12/11 05:42:02;;;;;;;29.95;13.35;;;;;;;-0.69;nan;94978.03;4974842;28;20681;-69
2020/12/11 05:44:30;;;;;;;33.22;14.32;;;;;;;-0.69;nan;94975.47;4976462;28;20233;-70
2020/12/11 05:46:59;;;;;;;28.15;13.85;;;;;;;-0.68;nan;94977.16;4977476;28;20205;-69
2020/12/11 05:49:29;;;;;;;29.40;13.52;;;;;;;-0.68;nan;94972.03;4976618;28;20264;-68
2020/12/11 05:51:59;;;;;;;28.58;13.85;;;;;;;-0.83;nan;94937.81;4977204;28;20600;-68
2020/12/11 05:54:26;;;;;;;29.30;14.02;;;;;;;-0.66;nan;94949.81;4977454;28;20260;-68
2020/12/11 05:56:53;;;;;;;26.92;13.30;;;;;;;-0.53;nan;94949.16;4976946;28;20583;-69
2020/12/11 05:59:26;;;;;;;30.02;12.60;;;;;;;-0.51;nan;94951.66;4977662;28;20259;-69
2020/12/11 06:01:57;;;;;;;29.30;12.27;;;;;;;-0.60;nan;94941.88;4976193;28;20718;-69
2020/12/11 06:04:29;;;;;;;30.35;13.98;;;;;;;-0.59;nan;94956.31;4978585;28;20870;-69
2020/12/11 06:06:58;;;;;;;26.63;13.13;;;;;;;-0.60;nan;94949.53;4977852;28;20254;-69
2020/12/11 06:09:43;;;;;;;32.17;13.93;;;;;;;-0.63;nan;94952.22;4976831;28;20319;-69
2020/12/11 06:12:12;;;;;;;27.13;13.27;;;;;;;-0.62;nan;94948.75;4976904;28;20342;-68
2020/12/11 06:15:01;;;;;;;29.20;13.65;;;;;;;-0.61;nan;94945.34;4976621;28;20233;-68
2020/12/11 06:17:32;;;;;;;29.23;13.32;;;;;;;-0.56;nan;94951.03;4976993;28;20237;-69
2020/12/11 06:20:01;;;;;;;28.27;14.65;;;;;;;-0.57;nan;94928.94;4978704;28;20735;-68
2020/12/11 06:22:28;;;;;;;37.88;14.65;;;;;;;-0.57;nan;94928.94;4976686;28;20463;-68
2020/12/11 06:24:55;;;;;;;33.53;14.52;;;;;;;-0.67;nan;94923.44;4976480;28;20607;-68
2020/12/11 06:27:32;;;;;;;24.55;13.48;;;;;;;-0.69;nan;94922.69;4977712;28;20213;-69
2020/12/11 06:29:59;;;;;;;30.67;14.07;;;;;;;-0.62;nan;94920.66;4976268;28;20259;-70
2020/12/11 06:32:33;;;;;;;29.25;13.75;;;;;;;-0.56;nan;94912.72;4976624;28;20628;-68
2020/12/11 06:35:11;;;;;;;33.10;14.02;;;;;;;-0.55;nan;94906.72;4971169;28;20225;-69
2020/12/11 06:37:38;;;;;;;26.10;13.32;;;;;;;-0.56;nan;94910.16;4976409;28;20204;-69
2020/12/11 06:40:05;;;;;;;25.40;12.05;;;;;;;-0.52;nan;94909.16;4975947;28;20566;-68
2020/12/11 06:42:44;;;;;;;45.08;19.52;;;;;;;-0.53;nan;94915.16;4976584;28;20234;-68
2020/12/11 06:45:28;;;;;;;37.83;16.05;;;;;;;-0.52;nan;94911.69;4976768;28;20229;-70
2020/12/11 06:47:57;;;;;;;33.67;14.05;;;;;;;-0.44;nan;94914.72;4975641;28;20709;-69
2020/12/11 06:50:26;;;;;;;31.73;12.88;;;;;;;-0.37;nan;94910.97;4976174;28;20735;-68
2020/12/11 06:52:54;;;;;;;28.52;13.38;;;;;;;-0.41;nan;94912.00;4975823;28;20522;-69
2020/12/11 06:55:21;;;;;;;27.50;12.80;;;;;;;-0.34;nan;94918.50;4975540;28;20201;-68
2020/12/11 06:57:49;;;;;;;27.80;13.55;;;;;;;-0.50;nan;94889.47;4972608;28;20277;-68
2020/12/11 07:00:44;;;;;;;26.40;13.35;;;;;;;-0.24;nan;94906.94;4976102;28;20217;-69
2020/12/11 07:03:30;;;;;;;34.45;13.07;;;;;;;-0.24;nan;94900.09;4976084;28;20239;-68
2020/12/11 07:06:10;;;;;;;28.75;13.13;;;;;;;-0.19;nan;94900.72;4976893;28;20307;-67
2020/12/11 07:08:37;;;;;;;23.73;11.70;;;;;;;-0.31;nan;94890.25;4974858;28;20225;-67
2020/12/11 07:11:12;;;;;;;27.40;13.98;;;;;;;-0.32;nan;94898.81;4976679;28;20309;-68
2020/12/11 07:13:50;;;;;;;27.15;13.10;;;;;;;-0.43;nan;94907.00;4975973;28;20672;-68
2020/12/11 07:16:17;;;;;;;29.58;12.50;;;;;;;-0.46;nan;94890.97;4977796;28;20255;-68
2020/12/11 07:18:44;;;;;;;28.48;12.55;;;;;;;-0.54;nan;94882.84;4975745;28;20664;-67
2020/12/11 07:21:12;;;;;;;26.35;13.52;;;;;;;-0.45;nan;94878.13;4979279;28;20596;-67
2020/12/11 07:23:40;;;;;;;27.30;12.63;;;;;;;-0.46;nan;94875.66;4975859;28;20264;-70
2020/12/11 07:26:08;;;;;;;27.58;12.60;;;;;;;-0.48;nan;94862.94;4976310;28;20679;-68
2020/12/11 07:28:35;;;;;;;26.67;12.30;;;;;;;-0.52;nan;94861.41;4976670;28;20755;-68
2020/12/11 07:31:02;;;;;;;32.70;12.02;;;;;;;-0.39;nan;94866.81;4976720;28;20699;-69
2020/12/11 07:33:33;;;;;;;36.35;15.63;;;;;;;-0.32;nan;94868.16;4975894;28;20618;-70
2020/12/11 07:36:04;;;;;;;29.95;14.25;;;;;;;-0.26;nan;94873.78;4976794;28;20208;-67
2020/12/11 07:38:33;;;;;;;25.30;12.02;;;;;;;-0.23;nan;94875.38;4975930;28;20257;-69
2020/12/11 07:41:03;;;;;;;28.40;13.40;;;;;;;-0.23;nan;94868.53;4976597;28;20194;-67
2020/12/11 07:43:30;;;;;;;25.00;12.15;;;;;;;-0.20;nan;94872.66;4975978;28;20324;-67
2020/12/11 07:45:57;;;;;;;25.77;12.10;;;;;;;-0.18;nan;94873.41;4976456;28;20819;-67
2020/12/11 07:48:24;;;;;;;30.90;12.85;;;;;;;-0.08;nan;94866.97;4975836;28;20732;-66
2020/12/11 07:50:50;;;;;;;26.00;12.65;;;;;;;0.00;nan;94871.63;4976151;28;20707;-70
2020/12/11 07:53:17;;;;;;;22.55;12.18;;;;;;;0.00;nan;94861.41;4975995;28;20248;-67
2020/12/11 07:55:45;;;;;;;27.80;11.20;;;;;;;-0.01;nan;94862.31;4975735;28;20815;-67
2020/12/11 07:58:12;;;;;;;27.95;13.50;;;;;;;0.10;nan;94862.59;4975786;28;20317;-70
2020/12/11 08:00:39;;;;;;;22.88;10.38;;;;;;;0.10;nan;94841.31;4976307;28;20197;-70
2020/12/11 08:03:07;;;;;;;26.92;13.45;;;;;;;0.56;nan;94861.94;4975862;28;20520;-69
2020/12/11 08:05:39;;;;;;;27.90;11.02;;;;;;;1.29;nan;94859.72;4976155;28;20292;-67
2020/12/11 08:08:07;;;;;;;21.02;10.93;;;;;;;1.19;nan;94858.53;4976028;28;20317;-70
2020/12/11 08:10:43;;;;;;;20.70;10.30;;;;;;;1.16;nan;94855.31;4975957;28;20631;-67
2020/12/11 08:13:15;;;;;;;25.20;13.77;;;;;;;2.17;nan;94856.41;4975047;28;20198;-67
2020/12/11 08:15:44;;;;;;;20.20;10.43;;;;;;;3.68;nan;94838.47;4976986;28;20627;-68
2020/12/11 08:18:22;;;;;;;20.23;10.57;;;;;;;4.47;nan;94835.78;4975977;28;20224;-67
2020/12/11 08:20:51;;;;;;;20.42;10.15;;;;;;;3.68;nan;94825.59;4982366;28;20278;-68
2020/12/11 08:23:36;;;;;;;26.38;11.02;;;;;;;2.58;nan;94834.25;4977621;28;20579;-68
2020/12/11 08:26:04;;;;;;;17.00;9.80;;;;;;;1.81;nan;94827.72;4977945;28;20685;-72
2020/12/11 08:28:32;;;;;;;21.08;11.68;;;;;;;1.33;nan;94827.06;4979264;28;20279;-72
2020/12/11 08:31:12;;;;;;;24.48;11.85;;;;;;;0.94;nan;94835.16;4979814;28;20301;-72
2020/12/11 08:33:39;;;;;;;19.95;10.93;;;;;;;0.72;nan;94832.06;4979571;28;20580;-71
2020/12/11 08:36:05;;;;;;;19.70;10.70;;;;;;;0.66;nan;94827.28;4980293;28;20216;-72
2020/12/11 08:38:32;;;;;;;23.70;11.55;;;;;;;0.68;nan;94824.63;4979234;28;20697;-72
2020/12/11 08:40:59;;;;;;;25.45;12.10;;;;;;;0.67;nan;94828.13;4979842;28;20308;-72
2020/12/11 08:43:39;;;;;;;23.70;11.55;;;;;;;0.74;nan;94820.00;4978846;28;20530;-71
2020/12/11 08:46:13;;;;;;;19.33;11.05;;;;;;;0.77;nan;94806.22;4979658;28;20202;-72
2020/12/11 08:49:00;;;;;;;25.13;13.10;;;;;;;0.85;nan;94815.16;4978061;28;20620;-73
2020/12/11 08:51:27;;;;;;;19.05;10.07;;;;;;;0.88;nan;94812.44;4979637;28;20312;-71
2020/12/11 08:53:55;;;;;;;21.85;11.05;;;;;;;0.87;nan;94809.94;4978572;28;20763;-73
2020/12/11 08:56:38;;;;;;;22.33;9.98;;;;;;;0.94;nan;94813.84;4978764;28;20692;-71
2020/12/11 08:59:06;;;;;;;21.92;11.75;;;;;;;0.97;nan;94811.94;4978723;28;20220;-72
2020/12/11 09:01:33;;;;;;;22.92;11.65;;;;;;;1.03;nan;94810.81;4977029;28;20336;-72
2020/12/11 09:03:59;;;;;;;26.45;11.80;;;;;;;1.07;nan;94812.28;4978528;28;20747;-72
2020/12/11 09:06:26;;;;;;;18.20;10.07;;;;;;;1.07;nan;94818.22;4978654;28;20202;-72
2020/12/11 09:08:53;;;;;;;23.38;11.30;;;;;;;1.09;nan;94816.41;4978424;28;20784;-72
2020/12/11 09:11:20;;;;;;;23.48;11.50;;;;;;;1.18;nan;94815.09;4977368;28;21530;-71
2020/12/11 09:13:46;;;;;;;16.63;10.00;;;;;;;1.13;nan;94817.91;4978767;28;20737;-72
2020/12/11 09:16:14;;;;;;;24.38;12.00;;;;;;;1.15;nan;94818.63;4979163;28;20363;-72
2020/12/11 09:18:41;;;;;;;22.52;11.50;;;;;;;1.22;nan;94826.81;4977440;28;20676;-72
2020/12/11 09:21:08;;;;;;;23.80;10.93;;;;;;;1.30;nan;94819.53;4980435;28;20958;-73
2020/12/11 09:23:35;;;;;;;20.60;10.68;;;;;;;1.26;nan;94818.88;4977480;28;20313;-71
2020/12/11 09:26:01;;;;;;;19.63;10.63;;;;;;;1.35;nan;94823.50;4979299;28;20746;-72
2020/12/11 09:28:28;;;;;;;28.10;11.93;;;;;;;1.48;nan;94833.91;4977902;28;20532;-72
2020/12/11 09:30:55;;;;;;;26.90;11.95;;;;;;;1.47;nan;94825.38;4977483;28;20200;-73
2020/12/11 09:33:24;;;;;;;23.58;12.00;;;;;;;1.50;nan;94832.06;4978202;28;20552;-71
2020/12/11 09:35:51;;;;;;;22.52;12.43;;;;;;;1.57;nan;94829.09;4974879;28;20292;-71
2020/12/11 09:38:18;;;;;;;19.95;11.55;;;;;;;1.58;nan;94828.19;4978326;28;20798;-72
2020/12/11 09:40:47;;;;;;;21.13;11.73;;;;;;;1.58;nan;94827.34;4977874;28;20198;-72
2020/12/11 09:46:06;;;;;;;21.38;10.82;;;;;;;1.59;nan;94811.88;4977900;28;20713;-73
2020/12/11 09:48:39;;;;;;;22.13;10.63;;;;;;;1.67;nan;94807.16;4978004;28;20217;-72
2020/12/11 09:51:28;;;;;;;20.30;10.80;;;;;;;1.65;nan;94808.97;4978319;28;20244;-72
2020/12/11 09:54:08;;;;;;;20.55;9.90;;;;;;;1.79;nan;94803.91;4974697;28;20221;-72
2020/12/11 09:56:35;;;;;;;17.85;10.18;;;;;;;1.82;nan;94803.72;4978334;28;20488;-72
2020/12/11 09:59:05;;;;;;;20.70;10.48;;;;;;;1.86;nan;94794.91;4977653;28;20897;-73
2020/12/11 10:01:44;;;;;;;19.70;10.45;;;;;;;1.89;nan;94788.78;4978377;28;20640;-72
2020/12/11 10:04:12;;;;;;;19.52;9.43;;;;;;;2.03;nan;94805.06;4978326;28;20842;-72
2020/12/11 10:06:38;;;;;;;18.13;9.15;;;;;;;1.97;nan;94796.88;4978184;28;20617;-71
2020/12/11 10:09:05;;;;;;;17.65;9.63;;;;;;;1.85;nan;94798.41;4976937;28;20252;-73
2020/12/11 10:11:33;;;;;;;27.58;12.05;;;;;;;1.92;nan;94789.44;4977739;28;20281;-72
2020/12/11 10:14:14;;;;;;;21.75;11.43;;;;;;;2.03;nan;94787.09;4977514;28;20304;-72
2020/12/11 10:16:42;;;;;;;20.17;10.85;;;;;;;2.16;nan;94784.63;4977643;28;20588;-70
2020/12/11 10:19:10;;;;;;;27.63;13.40;;;;;;;2.23;nan;94773.09;4977002;28;20222;-69
2020/12/11 10:21:40;;;;;;;21.48;11.30;;;;;;;2.44;nan;94771.81;4979985;28;20197;-71
2020/12/11 10:24:06;;;;;;;20.25;10.48;;;;;;;2.58;nan;94769.25;4976804;28;20609;-72
2020/12/11 10:26:33;;;;;;;21.75;10.70;;;;;;;2.68;nan;94763.47;4976337;28;20205;-73
2020/12/11 10:29:00;;;;;;;17.05;9.85;;;;;;;2.78;nan;94761.97;4978078;28;20229;-72
2020/12/11 10:31:29;;;;;;;19.73;10.30;;;;;;;2.89;nan;94754.44;4977506;28;20671;-74
2020/12/11 10:33:56;;;;;;;22.02;11.68;;;;;;;3.07;nan;94745.59;4977264;28;20553;-73
2020/12/11 10:36:28;;;;;;;18.58;10.05;;;;;;;3.30;nan;94737.25;4977836;28;20874;-72
2020/12/11 10:38:57;;;;;;;19.55;10.02;;;;;;;3.43;nan;94750.97;4976581;28;20614;-73
2020/12/11 10:41:24;;;;;;;16.92;8.35;;;;;;;3.33;nan;94739.63;4977453;28;20286;-72
2020/12/11 10:43:52;;;;;;;19.60;10.45;;;;;;;3.13;nan;94736.66;4976138;28;20867;-73
2020/12/11 10:46:19;;;;;;;20.13;10.30;;;;;;;3.10;nan;94729.16;4977936;28;20269;-73
2020/12/11 10:48:47;;;;;;;19.50;10.85;;;;;;;3.01;nan;94735.69;4976678;28;20675;-72
2020/12/11 10:51:15;;;;;;;20.48;10.82;;;;;;;3.13;nan;94716.94;4977052;28;20302;-72
2020/12/11 10:53:44;;;;;;;15.88;9.27;;;;;;;3.26;nan;94727.25;4980191;28;20218;-72
2020/12/11 10:56:13;;;;;;;20.42;10.25;;;;;;;3.30;nan;94708.16;4976850;28;20586;-72
2020/12/11 10:58:40;;;;;;;18.48;10.25;;;;;;;3.24;nan;94709.34;4977126;28;20628;-72
2020/12/11 11:01:08;;;;;;;18.33;10.57;;;;;;;3.29;nan;94706.47;4976174;28;20286;-72
2020/12/11 11:03:36;;;;;;;16.42;9.38;;;;;;;3.46;nan;94694.19;4974527;28;20671;-74
2020/12/11 11:06:10;;;;;;;22.00;10.50;;;;;;;3.62;nan;94687.16;4977770;28;20293;-72
2020/12/11 11:08:43;;;;;;;19.15;10.57;;;;;;;3.92;nan;94685.91;4974966;28;20222;-74
2020/12/11 11:11:10;;;;;;;18.98;10.85;;;;;;;4.15;nan;94674.09;4977036;28;20208;-72
2020/12/11 11:13:51;;;;;;;18.10;9.88;;;;;;;4.50;nan;94675.06;4976519;28;20686;-73
2020/12/11 11:16:25;;;;;;;17.88;9.32;;;;;;;4.75;nan;94672.41;4976690;28;20718;-73
2020/12/11 11:18:54;;;;;;;16.15;9.18;;;;;;;4.78;nan;94674.75;4976038;28;20221;-72
2020/12/11 11:21:47;;;;;;;18.75;10.63;;;;;;;4.69;nan;94658.22;4979358;28;20197;-73
2020/12/11 11:24:29;;;;;;;15.30;8.70;;;;;;;4.80;nan;94653.13;4975953;28;20551;-72
2020/12/11 11:27:08;;;;;;;18.23;9.48;;;;;;;5.01;nan;94650.78;4976576;28;20215;-74
2020/12/11 11:29:36;;;;;;;16.27;8.63;;;;;;;5.36;nan;94651.63;4974688;28;20657;-74
2020/12/11 11:32:02;;;;;;;15.82;8.85;;;;;;;5.83;nan;94642.03;4976565;28;20519;-72
2020/12/11 11:34:29;;;;;;;15.95;8.82;;;;;;;6.84;nan;94639.34;4976306;28;20719;-72
2020/12/11 11:36:56;;;;;;;19.17;10.75;;;;;;;7.67;nan;94625.59;4976162;28;20896;-70
2020/12/11 11:39:23;;;;;;;16.23;10.13;;;;;;;8.09;nan;94620.25;4975638;28;20249;-72
2020/12/11 11:41:55;;;;;;;14.95;9.32;;;;;;;7.40;nan;94628.69;4977118;28;20635;-72
2020/12/11 11:44:44;;;;;;;18.55;9.95;;;;;;;6.64;nan;94627.94;4974842;28;20320;-72
2020/12/11 11:47:12;;;;;;;17.98;9.70;;;;;;;5.73;nan;94624.75;4975775;28;20595;-72
2020/12/11 11:49:52;;;;;;;15.48;9.02;;;;;;;5.43;nan;94627.03;4976945;28;20597;-72
2020/12/11 11:52:23;;;;;;;17.50;8.77;;;;;;;5.30;nan;94614.22;4975015;28;20285;-72
2020/12/11 11:54:50;;;;;;;16.10;9.40;;;;;;;5.16;nan;94618.75;4973084;28;20312;-73